LOT3HM EPWA-EVRA
Flight info
| Callsign | LOT3HM |
|---|---|
| Flight time | 0h 57m |
| Altitude | 35000 |
| Route | BAMSO Z182 ASLUX Z460 XESNA M857 BULEP DCT BOKSU DCT GUNTA |
| Aircraft | B738/M-SDE2E3FGHIRWXY/LB1 |
Departure
| Time | 2026-05-04 15:35 |
|---|---|
| Airport | Warsaw Chopin Airport (EPWA) |
Arrival
| Time | 2026-05-04 16:32 |
|---|---|
| Airport | Riga International Airport (EVRA) |
| Time | Latitude | Longitude | Altitude | Speed | Heading |
|---|---|---|---|---|---|
| 2026-05-04 15:07 | 52.17619 | 20.96687 | 338 ft | 0 kts | 237° |
| 2026-05-04 15:21 | 52.17619 | 20.96688 | 335 ft | 1 kts | 237° |
| 2026-05-04 15:22 | 52.17634 | 20.96716 | 333 ft | 4 kts | 207° |
| 2026-05-04 15:22 | 52.17658 | 20.96723 | 334 ft | 4 kts | 162° |
| 2026-05-04 15:22 | 52.17671 | 20.96714 | 335 ft | 0 kts | 147° |
| 2026-05-04 15:26 | 52.17669 | 20.96716 | 338 ft | 2 kts | 147° |
| 2026-05-04 15:27 | 52.17616 | 20.96769 | 338 ft | 12 kts | 156° |
| 2026-05-04 15:27 | 52.17463 | 20.96484 | 337 ft | 22 kts | 241° |
| 2026-05-04 15:28 | 52.17245 | 20.96521 | 336 ft | 27 kts | 151° |
| 2026-05-04 15:28 | 52.17078 | 20.96666 | 338 ft | 25 kts | 153° |
| 2026-05-04 15:28 | 52.16790 | 20.96920 | 334 ft | 23 kts | 152° |
| 2026-05-04 15:29 | 52.16669 | 20.97036 | 337 ft | 12 kts | 126° |
| 2026-05-04 15:30 | 52.16417 | 20.97928 | 338 ft | 28 kts | 114° |
| 2026-05-04 15:30 | 52.16225 | 20.98463 | 338 ft | 0 kts | 194° |
| 2026-05-04 15:31 | 52.16211 | 20.98454 | 338 ft | 0 kts | 205° |
| 2026-05-04 15:32 | 52.16127 | 20.98355 | 333 ft | 13 kts | 256° |
| 2026-05-04 15:33 | 52.16150 | 20.98225 | 335 ft | 0 kts | 295° |
| 2026-05-04 15:34 | 52.16247 | 20.97880 | 335 ft | 78 kts | 294° |
| 2026-05-04 15:35 | 52.17019 | 20.94889 | 979 ft | 179 kts | 291° |
| 2026-05-04 15:35 | 52.17532 | 20.92993 | 2068 ft | 176 kts | 289° |
| 2026-05-04 15:35 | 52.18081 | 20.91130 | 2989 ft | 192 kts | 298° |
| 2026-05-04 15:36 | 52.20660 | 20.88612 | 3637 ft | 242 kts | 334° |
| 2026-05-04 15:36 | 52.22188 | 20.87399 | 4171 ft | 246 kts | 319° |
| 2026-05-04 15:36 | 52.23365 | 20.85427 | 4809 ft | 246 kts | 309° |
| 2026-05-04 15:37 | 52.24551 | 20.83326 | 5367 ft | 256 kts | 310° |
| 2026-05-04 15:37 | 52.25787 | 20.81196 | 6181 ft | 259 kts | 312° |
| 2026-05-04 15:37 | 52.27327 | 20.79656 | 7072 ft | 267 kts | 340° |
| 2026-05-04 15:37 | 52.29168 | 20.79020 | 7850 ft | 274 kts | 345° |
| 2026-05-04 15:38 | 52.31087 | 20.78674 | 8570 ft | 285 kts | 2° |
| 2026-05-04 15:38 | 52.32977 | 20.79743 | 9332 ft | 295 kts | 33° |
| 2026-05-04 15:38 | 52.34380 | 20.82249 | 9914 ft | 309 kts | 65° |
| 2026-05-04 15:38 | 52.34883 | 20.85709 | 10257 ft | 325 kts | 90° |
| 2026-05-04 15:39 | 52.34842 | 20.89483 | 10460 ft | 348 kts | 95° |
| 2026-05-04 15:39 | 52.34734 | 20.93554 | 10635 ft | 371 kts | 94° |
| 2026-05-04 15:39 | 52.34620 | 21.02459 | 11106 ft | 408 kts | 92° |
| 2026-05-04 15:40 | 52.34606 | 21.07127 | 11677 ft | 413 kts | 91° |
| 2026-05-04 15:40 | 52.34866 | 21.11827 | 12325 ft | 419 kts | 79° |
| 2026-05-04 15:40 | 52.35592 | 21.16450 | 12984 ft | 422 kts | 75° |
| 2026-05-04 15:40 | 52.36350 | 21.21118 | 13614 ft | 427 kts | 76° |
| 2026-05-04 15:41 | 52.37057 | 21.25856 | 14174 ft | 431 kts | 77° |
| 2026-05-04 15:41 | 52.37732 | 21.30649 | 14741 ft | 434 kts | 78° |
| 2026-05-04 15:41 | 52.38066 | 21.35555 | 15276 ft | 437 kts | 95° |
| 2026-05-04 15:41 | 52.37668 | 21.40486 | 15898 ft | 437 kts | 100° |
| 2026-05-04 15:42 | 52.37291 | 21.45401 | 16446 ft | 443 kts | 93° |
| 2026-05-04 15:42 | 52.37751 | 21.50397 | 16941 ft | 449 kts | 69° |
| 2026-05-04 15:42 | 52.39293 | 21.54819 | 17526 ft | 449 kts | 49° |
| 2026-05-04 15:42 | 52.41509 | 21.58413 | 18100 ft | 449 kts | 35° |
| 2026-05-04 15:43 | 52.44195 | 21.60994 | 18565 ft | 448 kts | 22° |
| 2026-05-04 15:43 | 52.46988 | 21.63071 | 19061 ft | 449 kts | 21° |
| 2026-05-04 15:43 | 52.49854 | 21.65128 | 19581 ft | 451 kts | 21° |
| 2026-05-04 15:43 | 52.52728 | 21.67182 | 20160 ft | 450 kts | 21° |
| 2026-05-04 15:44 | 52.55600 | 21.69253 | 20641 ft | 452 kts | 21° |
| 2026-05-04 15:44 | 52.58491 | 21.71363 | 21064 ft | 455 kts | 22° |
| 2026-05-04 15:44 | 52.61386 | 21.73500 | 21488 ft | 458 kts | 22° |
| 2026-05-04 15:44 | 52.64296 | 21.75666 | 21918 ft | 460 kts | 22° |
| 2026-05-04 15:45 | 52.67221 | 21.77855 | 22349 ft | 462 kts | 22° |
| 2026-05-04 15:45 | 52.70151 | 21.80056 | 22768 ft | 464 kts | 22° |
| 2026-05-04 15:45 | 52.73094 | 21.82271 | 23178 ft | 467 kts | 22° |
| 2026-05-04 15:45 | 52.76061 | 21.84507 | 23500 ft | 470 kts | 22° |
| 2026-05-04 15:46 | 52.78999 | 21.86723 | 23798 ft | 473 kts | 22° |
| 2026-05-04 15:46 | 52.81997 | 21.88987 | 24131 ft | 474 kts | 22° |
| 2026-05-04 15:46 | 52.85003 | 21.91262 | 24447 ft | 476 kts | 22° |
| 2026-05-04 15:46 | 52.88021 | 21.93548 | 24749 ft | 478 kts | 22° |
| 2026-05-04 15:47 | 52.91047 | 21.95842 | 25033 ft | 480 kts | 22° |
| 2026-05-04 15:47 | 52.94091 | 21.98155 | 25308 ft | 483 kts | 22° |
| 2026-05-04 15:47 | 52.97089 | 22.00436 | 25592 ft | 485 kts | 22° |
| 2026-05-04 15:47 | 53.00162 | 22.02778 | 25856 ft | 487 kts | 22° |
| 2026-05-04 15:48 | 53.03246 | 22.05132 | 26127 ft | 489 kts | 22° |
| 2026-05-04 15:48 | 53.06337 | 22.07496 | 26394 ft | 490 kts | 22° |
| 2026-05-04 15:48 | 53.12506 | 22.12225 | 27161 ft | 487 kts | 22° |
| 2026-05-04 15:49 | 53.15581 | 22.14588 | 27567 ft | 486 kts | 22° |
| 2026-05-04 15:49 | 53.18651 | 22.16951 | 27951 ft | 486 kts | 22° |
| 2026-05-04 15:49 | 53.21719 | 22.19315 | 28277 ft | 486 kts | 22° |
| 2026-05-04 15:49 | 53.24787 | 22.21682 | 28641 ft | 486 kts | 22° |
| 2026-05-04 15:50 | 53.27855 | 22.24054 | 29039 ft | 485 kts | 22° |
| 2026-05-04 15:50 | 53.30913 | 22.26422 | 29428 ft | 484 kts | 21° |
| 2026-05-04 15:50 | 53.33967 | 22.28790 | 29793 ft | 484 kts | 21° |
| 2026-05-04 15:50 | 53.37018 | 22.31161 | 30145 ft | 483 kts | 21° |
| 2026-05-04 15:51 | 53.40026 | 22.33501 | 30472 ft | 482 kts | 21° |
| 2026-05-04 15:51 | 53.43101 | 22.35897 | 30778 ft | 482 kts | 21° |
| 2026-05-04 15:51 | 53.46108 | 22.38243 | 31019 ft | 483 kts | 21° |
| 2026-05-04 15:51 | 53.49153 | 22.40623 | 31326 ft | 482 kts | 21° |
| 2026-05-04 15:52 | 53.52191 | 22.43003 | 31682 ft | 481 kts | 21° |
| 2026-05-04 15:52 | 53.55217 | 22.45376 | 31999 ft | 480 kts | 21° |
| 2026-05-04 15:52 | 53.58240 | 22.47750 | 32279 ft | 480 kts | 21° |
| 2026-05-04 15:52 | 53.61261 | 22.50127 | 32572 ft | 479 kts | 21° |
| 2026-05-04 15:53 | 53.64277 | 22.52503 | 32890 ft | 478 kts | 21° |
| 2026-05-04 15:53 | 53.67283 | 22.54874 | 33136 ft | 479 kts | 21° |
| 2026-05-04 15:53 | 53.70302 | 22.57261 | 33384 ft | 479 kts | 21° |
| 2026-05-04 15:53 | 53.73314 | 22.59645 | 33685 ft | 478 kts | 21° |
| 2026-05-04 15:54 | 53.76323 | 22.62031 | 33977 ft | 477 kts | 21° |
| 2026-05-04 15:54 | 53.79329 | 22.64419 | 34198 ft | 477 kts | 21° |
| 2026-05-04 15:54 | 53.82331 | 22.66807 | 34409 ft | 477 kts | 21° |
| 2026-05-04 15:54 | 53.85327 | 22.69194 | 34632 ft | 477 kts | 21° |
| 2026-05-04 15:55 | 53.88324 | 22.71586 | 34867 ft | 476 kts | 21° |
| 2026-05-04 15:55 | 53.91331 | 22.73988 | 34876 ft | 480 kts | 21° |
| 2026-05-04 15:55 | 53.97325 | 22.78790 | 34886 ft | 478 kts | 21° |
| 2026-05-04 15:56 | 54.03313 | 22.83605 | 34892 ft | 475 kts | 21° |
| 2026-05-04 15:56 | 54.09278 | 22.88415 | 34887 ft | 474 kts | 21° |
| 2026-05-04 15:57 | 54.15230 | 22.93229 | 34889 ft | 474 kts | 21° |
| 2026-05-04 15:57 | 54.21188 | 22.98064 | 34887 ft | 475 kts | 21° |
| 2026-05-04 15:58 | 54.27073 | 23.02854 | 34888 ft | 477 kts | 21° |
| 2026-05-04 15:58 | 54.33220 | 23.06902 | 34875 ft | 471 kts | 7° |
| 2026-05-04 15:59 | 54.39656 | 23.08949 | 34891 ft | 471 kts | 5° |
| 2026-05-04 15:59 | 54.46084 | 23.10882 | 34890 ft | 474 kts | 5° |
| 2026-05-04 16:00 | 54.52580 | 23.12916 | 34913 ft | 475 kts | 5° |
| 2026-05-04 16:00 | 54.59088 | 23.15017 | 34890 ft | 475 kts | 6° |
| 2026-05-04 16:01 | 54.65585 | 23.17139 | 34894 ft | 475 kts | 5° |
| 2026-05-04 16:01 | 54.72082 | 23.19262 | 34890 ft | 475 kts | 5° |
| 2026-05-04 16:02 | 54.78566 | 23.21372 | 34890 ft | 474 kts | 5° |
| 2026-05-04 16:03 | 54.88285 | 23.24565 | 34909 ft | 474 kts | 5° |
| 2026-05-04 16:03 | 54.94766 | 23.26706 | 34903 ft | 474 kts | 5° |
| 2026-05-04 16:04 | 55.01210 | 23.28842 | 34898 ft | 475 kts | 5° |
| 2026-05-04 16:04 | 55.10942 | 23.32082 | 34896 ft | 475 kts | 5° |
| 2026-05-04 16:05 | 55.17439 | 23.34253 | 34900 ft | 476 kts | 5° |
| 2026-05-04 16:06 | 55.27208 | 23.37547 | 34894 ft | 477 kts | 5° |
| 2026-05-04 16:06 | 55.35886 | 23.40479 | 34697 ft | 481 kts | 5° |
| 2026-05-04 16:07 | 55.40301 | 23.41970 | 33923 ft | 481 kts | 5° |
| 2026-05-04 16:07 | 55.50193 | 23.45329 | 31583 ft | 483 kts | 5° |
| 2026-05-04 16:08 | 55.53492 | 23.46453 | 30853 ft | 483 kts | 5° |
| 2026-05-04 16:08 | 55.63424 | 23.49846 | 28264 ft | 486 kts | 5° |
| 2026-05-04 16:09 | 55.70030 | 23.52114 | 26475 ft | 488 kts | 4° |
| 2026-05-04 16:09 | 55.76656 | 23.54401 | 24944 ft | 483 kts | 4° |
| 2026-05-04 16:10 | 55.83187 | 23.56669 | 23607 ft | 474 kts | 4° |
| 2026-05-04 16:11 | 55.92781 | 23.60002 | 21483 ft | 461 kts | 4° |
| 2026-05-04 16:11 | 55.95912 | 23.61093 | 20812 ft | 456 kts | 4° |
| 2026-05-04 16:12 | 56.05113 | 23.64306 | 18867 ft | 443 kts | 5° |
| 2026-05-04 16:12 | 56.14094 | 23.67456 | 16818 ft | 432 kts | 5° |
| 2026-05-04 16:13 | 56.19937 | 23.69516 | 15542 ft | 424 kts | 5° |
| 2026-05-04 16:13 | 56.25662 | 23.71540 | 14533 ft | 411 kts | 6° |
| 2026-05-04 16:14 | 56.31038 | 23.73455 | 14181 ft | 383 kts | 5° |
| 2026-05-04 16:14 | 56.36087 | 23.74374 | 13846 ft | 344 kts | 340° |
| 2026-05-04 16:15 | 56.41778 | 23.68058 | 12832 ft | 319 kts | 322° |
| 2026-05-04 16:16 | 56.46187 | 23.66194 | 12298 ft | 340 kts | 352° |
| 2026-05-04 16:16 | 56.53329 | 23.66289 | 11302 ft | 342 kts | 354° |
| 2026-05-04 16:17 | 56.58057 | 23.66372 | 10632 ft | 335 kts | 353° |
| 2026-05-04 16:18 | 56.64867 | 23.66431 | 9738 ft | 310 kts | 352° |
| 2026-05-04 16:18 | 56.66923 | 23.66450 | 9741 ft | 290 kts | 352° |
| 2026-05-04 16:19 | 56.72864 | 23.66462 | 8543 ft | 276 kts | 351° |
| 2026-05-04 16:19 | 56.76671 | 23.66462 | 8041 ft | 273 kts | 351° |
| 2026-05-04 16:20 | 56.82384 | 23.66464 | 7221 ft | 275 kts | 352° |
| 2026-05-04 16:20 | 56.86219 | 23.66471 | 6691 ft | 275 kts | 352° |
| 2026-05-04 16:21 | 56.91949 | 23.66487 | 5870 ft | 272 kts | 352° |
| 2026-05-04 16:22 | 56.95618 | 23.66504 | 5346 ft | 256 kts | 352° |
| 2026-05-04 16:22 | 57.00656 | 23.66639 | 4985 ft | 240 kts | 357° |
| 2026-05-04 16:23 | 57.05600 | 23.67819 | 4978 ft | 238 kts | 359° |
| 2026-05-04 16:24 | 57.12131 | 23.69322 | 4954 ft | 236 kts | 359° |
| 2026-05-04 16:25 | 57.15065 | 23.72171 | 4930 ft | 265 kts | 58° |
| 2026-05-04 16:26 | 57.14341 | 23.85219 | 3981 ft | 254 kts | 104° |
| 2026-05-04 16:26 | 57.13370 | 23.94549 | 3372 ft | 246 kts | 104° |
| 2026-05-04 16:27 | 57.11648 | 23.99214 | 2971 ft | 208 kts | 172° |
| 2026-05-04 16:28 | 57.07763 | 23.99601 | 2521 ft | 174 kts | 189° |
| 2026-05-04 16:28 | 57.04344 | 23.99104 | 2193 ft | 148 kts | 193° |
| 2026-05-04 16:29 | 57.00532 | 23.98469 | 1470 ft | 135 kts | 193° |
| 2026-05-04 16:30 | 56.97765 | 23.98010 | 897 ft | 130 kts | 192° |
| 2026-05-04 16:31 | 56.95933 | 23.97704 | 565 ft | 135 kts | 190° |
| 2026-05-04 16:31 | 56.93219 | 23.97262 | 60 ft | 123 kts | 190° |
| 2026-05-04 16:32 | 56.91762 | 23.97181 | 43 ft | 26 kts | 153° |
| 2026-05-04 16:33 | 56.91837 | 23.97424 | 43 ft | 17 kts | 5° |
| 2026-05-04 16:33 | 56.92042 | 23.97445 | 43 ft | 19 kts | 3° |
| 2026-05-04 16:34 | 56.92319 | 23.97492 | 43 ft | 22 kts | 6° |
| 2026-05-04 16:34 | 56.92396 | 23.97606 | 43 ft | 15 kts | 87° |
| 2026-05-04 16:35 | 56.92431 | 23.97853 | 43 ft | 2 kts | 5° |
| 2026-05-04 16:35 | 56.92436 | 23.97854 | 43 ft | 0 kts | 5° |